createdAt,value
2023-02-13T00:01:42.824Z,6.00
2023-02-13T00:03:48.216Z,6.00
2023-02-13T00:05:54.552Z,6.00
2023-02-13T00:07:59.515Z,6.00
2023-02-13T00:10:04.852Z,6.00
2023-02-13T00:12:11.104Z,5.90
2023-02-13T00:14:18.628Z,5.90
2023-02-13T00:16:23.622Z,5.90
2023-02-13T00:18:29.176Z,5.90
2023-02-13T00:20:34.635Z,5.90
2023-02-13T00:22:40.944Z,5.90
2023-02-13T00:24:45.936Z,5.90
2023-02-13T00:26:52.728Z,5.90
2023-02-13T00:28:59.405Z,5.90
2023-02-13T00:31:14.091Z,5.90
2023-02-13T00:33:20.157Z,5.90
2023-02-13T00:35:25.146Z,5.90
2023-02-13T00:37:31.369Z,5.90
2023-02-13T00:39:36.561Z,5.90
2023-02-13T00:41:42.300Z,5.90
2023-02-13T00:43:48.749Z,5.90
2023-02-13T00:45:53.729Z,5.90
2023-02-13T00:48:01.616Z,5.90
2023-02-13T00:50:07.664Z,5.90
2023-02-13T00:52:13.867Z,5.90
2023-02-13T00:54:18.909Z,5.90
2023-02-13T00:56:24.285Z,5.90
2023-02-13T00:58:30.821Z,5.90
2023-02-13T01:00:36.617Z,5.90
2023-02-13T01:02:43.940Z,5.90
2023-02-13T01:04:52.022Z,5.80
2023-02-13T01:06:57.017Z,5.90
2023-02-13T01:09:02.245Z,5.80
2023-02-13T01:11:07.533Z,5.80
2023-02-13T01:13:13.377Z,5.80
2023-02-13T01:15:19.217Z,5.70
2023-02-13T01:17:24.558Z,5.70
2023-02-13T01:19:32.269Z,5.80
2023-02-13T01:21:40.614Z,5.70
2023-02-13T01:23:45.632Z,5.70
2023-02-13T01:25:52.013Z,5.60
2023-02-13T01:27:57.867Z,5.60
2023-02-13T01:30:03.468Z,5.60
2023-02-13T01:32:08.847Z,5.60
2023-02-13T01:34:13.845Z,5.70
2023-02-13T01:36:19.772Z,5.70
2023-02-13T01:38:27.312Z,5.70
2023-02-13T01:40:32.585Z,5.70
2023-02-13T01:42:39.580Z,5.80
2023-02-13T01:44:55.467Z,5.70
2023-02-13T01:47:00.585Z,5.80
2023-02-13T01:49:13.018Z,5.70
2023-02-13T01:51:23.800Z,5.70
2023-02-13T01:53:36.184Z,5.80
2023-02-13T01:55:50.268Z,5.80
2023-02-13T01:58:01.629Z,5.70
2023-02-13T02:00:12.550Z,5.80
2023-02-13T02:02:25.286Z,5.80
2023-02-13T02:04:35.983Z,5.80
2023-02-13T02:06:51.080Z,5.70
2023-02-13T02:09:14.757Z,5.80
2023-02-13T02:11:29.811Z,5.80
2023-02-13T02:13:34.968Z,5.70
2023-02-13T02:15:46.047Z,5.80
2023-02-13T02:17:51.830Z,5.70
2023-02-13T02:20:07.065Z,5.80
2023-02-13T02:22:40.894Z,5.80
2023-02-13T02:25:12.341Z,5.80
2023-02-13T02:28:14.652Z,5.80
2023-02-13T02:31:16.247Z,5.80
2023-02-13T02:33:45.409Z,5.70
2023-02-13T02:36:04.608Z,5.70
2023-02-13T02:38:29.816Z,5.80
2023-02-13T02:40:44.481Z,5.80
2023-02-13T02:43:07.688Z,5.80
2023-02-13T02:45:22.495Z,5.70
2023-02-13T02:47:46.767Z,5.80
2023-02-13T02:50:08.465Z,5.80
2023-02-13T02:52:20.966Z,5.80
2023-02-13T02:54:44.593Z,5.80
2023-02-13T02:56:51.665Z,5.80
2023-02-13T02:59:15.736Z,5.80
2023-02-13T03:01:39.048Z,5.80
2023-02-13T03:03:57.134Z,5.80
2023-02-13T03:06:15.225Z,5.80
2023-02-13T03:08:41.469Z,5.80
2023-02-13T03:10:59.237Z,5.80
2023-02-13T03:13:22.946Z,5.70
2023-02-13T03:15:34.587Z,5.70
2023-02-13T03:17:53.040Z,5.70
2023-02-13T03:20:28.142Z,5.70
2023-02-13T03:22:48.093Z,5.70
2023-02-13T03:25:05.231Z,5.80
2023-02-13T03:27:16.752Z,5.70
2023-02-13T03:29:54.903Z,5.70
2023-02-13T03:32:13.476Z,5.70
2023-02-13T03:34:23.977Z,5.70
2023-02-13T03:36:57.009Z,5.70
2023-02-13T03:39:12.958Z,5.70
2023-02-13T03:41:22.947Z,5.70
2023-02-13T03:43:32.652Z,5.70
2023-02-13T03:45:57.447Z,5.70
2023-02-13T03:48:09.699Z,5.70
2023-02-13T03:50:15.276Z,5.70
2023-02-13T03:52:29.140Z,5.60
2023-02-13T03:54:57.356Z,5.70
2023-02-13T03:57:14.882Z,5.60
2023-02-13T03:59:25.785Z,5.70
2023-02-13T04:01:35.055Z,5.60
2023-02-13T04:03:48.826Z,5.70
2023-02-13T04:05:59.865Z,5.70
2023-02-13T04:08:05.182Z,5.60
2023-02-13T04:10:17.226Z,5.70
2023-02-13T04:12:28.739Z,5.70
2023-02-13T04:14:40.372Z,5.60
2023-02-13T04:16:50.472Z,5.60
2023-02-13T04:18:56.042Z,5.60
2023-02-13T04:21:05.055Z,5.70
2023-02-13T04:23:13.251Z,5.70
2023-02-13T04:25:22.587Z,5.70
2023-02-13T04:27:30.630Z,5.70
2023-02-13T04:29:35.573Z,5.60
2023-02-13T04:31:41.042Z,5.70
2023-02-13T04:33:47.143Z,5.60
2023-02-13T04:35:52.082Z,5.60
2023-02-13T04:37:57.125Z,5.60
2023-02-13T04:40:02.934Z,5.50
2023-02-13T04:42:10.823Z,5.50
2023-02-13T04:44:15.746Z,5.50
2023-02-13T04:46:21.378Z,5.50
2023-02-13T04:48:26.347Z,5.50
2023-02-13T04:50:32.072Z,5.40
2023-02-13T04:52:37.065Z,5.30
2023-02-13T04:54:42.664Z,5.30
2023-02-13T04:56:48.009Z,5.30
2023-02-13T04:58:55.662Z,5.20
2023-02-13T05:01:00.687Z,5.10
2023-02-13T05:03:09.181Z,5.10
2023-02-13T05:05:14.158Z,5.10
2023-02-13T05:07:19.924Z,5.10
2023-02-13T05:09:25.342Z,5.00
2023-02-13T05:11:30.359Z,4.90
2023-02-13T05:13:35.529Z,4.80
2023-02-13T05:15:43.562Z,4.80
2023-02-13T05:17:48.725Z,4.80
2023-02-13T05:19:53.633Z,4.70
2023-02-13T05:22:12.087Z,4.70
2023-02-13T05:24:18.866Z,4.60
2023-02-13T05:26:25.806Z,4.30
2023-02-13T05:28:43.368Z,4.40
2023-02-13T05:30:51.384Z,4.40
2023-02-13T05:32:58.044Z,4.40
2023-02-13T05:35:04.543Z,4.40
2023-02-13T05:37:10.032Z,4.40
2023-02-13T05:39:15.311Z,4.30
2023-02-13T05:41:20.295Z,4.20
2023-02-13T05:43:25.888Z,4.00
2023-02-13T05:45:30.851Z,3.90
2023-02-13T05:47:39.192Z,4.00
2023-02-13T05:49:44.601Z,3.90
2023-02-13T05:51:50.023Z,3.90
2023-02-13T05:53:55.298Z,3.90
2023-02-13T05:56:00.249Z,3.80
2023-02-13T05:58:05.941Z,3.70
2023-02-13T06:00:12.731Z,3.70
2023-02-13T06:02:18.037Z,3.60
2023-02-13T06:04:25.827Z,3.50
2023-02-13T06:06:31.354Z,3.50
2023-02-13T06:08:36.703Z,3.50
2023-02-13T06:10:43.073Z,3.50
2023-02-13T06:12:50.189Z,3.50
2023-02-13T06:14:55.111Z,3.50
2023-02-13T06:17:00.355Z,3.50
2023-02-13T06:19:05.683Z,3.30
2023-02-13T06:21:13.232Z,2.80
2023-02-13T06:23:19.057Z,2.60
2023-02-13T06:25:24.419Z,2.60
2023-02-13T06:27:29.334Z,2.60
2023-02-13T06:29:35.117Z,2.80
2023-02-13T06:31:40.334Z,2.90
2023-02-13T06:33:46.075Z,2.70
2023-02-13T06:35:50.982Z,2.70
2023-02-13T06:37:58.512Z,2.60
2023-02-13T06:40:03.968Z,2.60
2023-02-13T06:42:09.077Z,2.50
2023-02-13T06:44:15.335Z,2.50
2023-02-13T06:46:20.278Z,2.20
2023-02-13T06:48:25.281Z,2.10
2023-02-13T06:50:31.185Z,1.90
2023-02-13T06:52:36.136Z,1.70
2023-02-13T06:54:48.015Z,1.70
2023-02-13T06:56:53.809Z,2.00
2023-02-13T06:58:59.363Z,2.00
2023-02-13T07:01:04.515Z,2.10
2023-02-13T07:03:10.637Z,2.20
2023-02-13T07:05:16.675Z,2.40
2023-02-13T07:07:24.771Z,2.40
2023-02-13T07:09:30.090Z,2.30
2023-02-13T07:11:39.128Z,2.40
2023-02-13T07:13:45.826Z,2.50
2023-02-13T07:15:52.275Z,2.60
2023-02-13T07:18:01.048Z,2.60
2023-02-13T07:20:07.267Z,2.60
2023-02-13T07:22:13.003Z,2.70
2023-02-13T07:24:17.976Z,2.70
2023-02-13T07:26:23.940Z,2.60
2023-02-13T07:28:32.518Z,2.60
2023-02-13T07:30:38.513Z,2.60
2023-02-13T07:32:43.953Z,2.60
2023-02-13T07:35:00.873Z,2.70
2023-02-13T07:37:06.823Z,2.70
2023-02-13T07:39:12.765Z,2.70
2023-02-13T07:41:17.982Z,2.70
2023-02-13T07:43:22.948Z,2.60
2023-02-13T07:45:31.718Z,2.70
2023-02-13T07:47:36.817Z,2.70
2023-02-13T07:49:42.848Z,2.70
2023-02-13T07:51:48.755Z,2.60
2023-02-13T07:53:56.510Z,2.70
2023-02-13T07:56:09.005Z,2.80
2023-02-13T07:58:14.543Z,2.80
2023-02-13T08:00:21.744Z,2.80
2023-02-13T08:02:29.278Z,2.90
2023-02-13T08:04:34.464Z,2.90
2023-02-13T08:06:42.268Z,2.90
2023-02-13T08:08:47.172Z,2.90
2023-02-13T08:11:04.618Z,2.90
2023-02-13T08:13:12.007Z,2.90
2023-02-13T08:15:19.583Z,3.00
2023-02-13T08:17:24.571Z,2.90
2023-02-13T08:19:32.271Z,2.90
2023-02-13T08:21:38.307Z,2.90
2023-02-13T08:23:43.567Z,3.00
2023-02-13T08:25:50.212Z,3.00
2023-02-13T08:27:56.814Z,3.00
2023-02-13T08:30:03.284Z,3.10
2023-02-13T08:32:10.212Z,3.10
2023-02-13T08:34:15.273Z,3.10
2023-02-13T08:36:22.843Z,3.20
2023-02-13T08:38:27.912Z,3.20
2023-02-13T08:40:34.064Z,3.20
2023-02-13T08:42:40.370Z,3.20
2023-02-13T08:44:45.346Z,3.20
2023-02-13T08:46:50.302Z,3.30
2023-02-13T08:48:56.934Z,3.30
2023-02-13T08:51:01.870Z,3.30
2023-02-13T08:53:12.046Z,3.40
2023-02-13T08:55:17.147Z,3.40
2023-02-13T08:57:22.398Z,3.40
2023-02-13T08:59:27.750Z,3.40
2023-02-13T09:01:33.326Z,3.50
2023-02-13T09:03:39.978Z,3.50
2023-02-13T09:05:45.486Z,3.50
2023-02-13T09:07:50.460Z,3.60
2023-02-13T09:09:58.810Z,3.60
2023-02-13T09:12:03.783Z,3.70
2023-02-13T09:14:09.116Z,3.70
2023-02-13T09:16:15.584Z,3.70
2023-02-13T09:18:20.598Z,3.80
2023-02-13T09:20:26.161Z,3.80
2023-02-13T09:22:32.920Z,3.90
2023-02-13T09:24:37.987Z,3.90
2023-02-13T09:26:45.534Z,3.90
2023-02-13T09:28:50.571Z,4.00
2023-02-13T09:30:55.967Z,4.00
2023-02-13T09:33:01.916Z,4.00
2023-02-13T09:35:07.435Z,4.10
2023-02-13T09:37:13.780Z,4.10
2023-02-13T09:39:19.271Z,4.10
2023-02-13T09:41:29.343Z,4.20
2023-02-13T09:43:43.802Z,4.30
2023-02-13T09:45:51.680Z,4.30
2023-02-13T09:47:56.968Z,4.50
2023-02-13T09:50:09.354Z,4.70
2023-02-13T09:52:15.066Z,4.60
2023-02-13T09:54:20.897Z,4.60
2023-02-13T09:56:42.430Z,4.70
2023-02-13T09:58:55.502Z,4.70
2023-02-13T10:01:03.456Z,4.70
2023-02-13T10:03:30.986Z,4.80
2023-02-13T10:06:01.854Z,4.90
2023-02-13T10:08:15.786Z,5.00
2023-02-13T10:10:30.988Z,5.10
2023-02-13T10:12:56.410Z,5.30
2023-02-13T10:15:20.213Z,5.20
2023-02-13T10:17:32.579Z,5.10
2023-02-13T10:19:44.583Z,5.50
2023-02-13T10:21:55.788Z,5.70
2023-02-13T10:24:10.935Z,5.80
2023-02-13T10:26:23.344Z,5.60
2023-02-13T10:28:38.346Z,5.50
2023-02-13T10:30:55.102Z,5.50
2023-02-13T10:33:19.791Z,5.50
2023-02-13T10:35:32.544Z,5.70
2023-02-13T10:37:39.097Z,5.90
2023-02-13T10:39:47.624Z,5.90
2023-02-13T10:41:57.984Z,5.80
2023-02-13T10:44:32.345Z,5.90
2023-02-13T10:46:50.262Z,6.40
2023-02-13T10:49:14.184Z,6.80
2023-02-13T10:51:28.124Z,6.70
2023-02-13T10:53:53.061Z,6.50
2023-02-13T10:56:38.328Z,6.60
2023-02-13T10:59:07.609Z,7.60
2023-02-13T11:01:21.972Z,7.80
2023-02-13T11:03:31.803Z,7.90
2023-02-13T11:05:41.846Z,7.80
2023-02-13T11:07:50.195Z,8.00
2023-02-13T11:10:02.294Z,7.80
2023-02-13T11:12:28.209Z,8.20
2023-02-13T11:14:33.677Z,8.10
2023-02-13T11:16:52.778Z,7.80
2023-02-13T11:19:00.372Z,7.80
2023-02-13T11:21:12.527Z,8.20
2023-02-13T11:23:39.484Z,8.20
2023-02-13T11:25:44.648Z,8.40
2023-02-13T11:27:53.130Z,8.40
2023-02-13T11:30:02.128Z,8.30
2023-02-13T11:32:21.324Z,8.30
2023-02-13T11:34:33.695Z,8.50
2023-02-13T11:38:46.301Z,8.30
2023-02-13T11:40:55.303Z,8.60
2023-02-13T11:43:01.028Z,9.00
2023-02-13T11:45:11.002Z,8.90
2023-02-13T11:47:18.188Z,8.80
2023-02-13T11:49:26.022Z,9.00
2023-02-13T11:51:46.589Z,9.10
2023-02-13T11:53:51.585Z,9.20
2023-02-13T11:56:16.823Z,9.10
2023-02-13T11:58:29.871Z,9.10
2023-02-13T12:00:42.611Z,9.20
2023-02-13T12:02:51.748Z,9.30
2023-02-13T12:05:16.734Z,9.40
2023-02-13T12:07:30.397Z,9.30
2023-02-13T12:09:36.308Z,9.30
2023-02-13T12:11:48.139Z,9.40
2023-02-13T12:13:54.603Z,9.40
2023-02-13T12:16:05.359Z,9.40
2023-02-13T12:18:19.241Z,9.30
2023-02-13T12:20:26.934Z,9.40
2023-02-13T12:22:46.613Z,9.70
2023-02-13T12:25:29.871Z,9.60
2023-02-13T12:27:47.543Z,9.70
2023-02-13T12:33:00.574Z,9.80
2023-02-13T12:35:51.996Z,9.80
2023-02-13T12:38:10.694Z,9.90
2023-02-13T12:40:41.650Z,9.90
2023-02-13T12:42:59.876Z,10.20
2023-02-13T12:45:24.143Z,10.30
2023-02-13T12:47:33.870Z,10.10
2023-02-13T12:50:23.381Z,10.20
2023-02-13T12:52:46.630Z,10.30
2023-02-13T12:55:13.937Z,10.50
2023-02-13T12:57:38.164Z,10.80
2023-02-13T13:03:09.287Z,11.20
2023-02-13T13:05:34.583Z,11.00
2023-02-13T13:07:56.550Z,11.30
2023-02-13T13:10:29.737Z,11.60
2023-02-13T13:12:48.238Z,11.40
2023-02-13T13:15:03.232Z,11.30
2023-02-13T13:17:21.987Z,11.20
2023-02-13T13:19:38.997Z,11.50
2023-02-13T13:21:52.735Z,11.10
2023-02-13T13:24:04.131Z,11.50
2023-02-13T13:26:25.122Z,11.60
2023-02-13T13:28:36.527Z,11.60
2023-02-13T13:30:44.745Z,11.60
2023-02-13T13:32:54.775Z,11.90
2023-02-13T13:35:03.209Z,11.90
2023-02-13T13:37:15.732Z,11.90
2023-02-13T13:41:56.899Z,11.60
2023-02-13T13:44:26.342Z,11.70
2023-02-13T13:46:49.519Z,11.60
2023-02-13T13:49:12.586Z,11.80
2023-02-13T13:53:28.916Z,11.90
2023-02-13T13:56:09.468Z,12.10
2023-02-13T13:58:27.789Z,11.70
2023-02-13T14:00:34.163Z,11.70
2023-02-13T14:02:50.508Z,11.80
2023-02-13T14:05:12.559Z,11.90
2023-02-13T14:07:25.618Z,11.80
2023-02-13T14:09:46.172Z,12.00
2023-02-13T14:11:51.482Z,12.10
2023-02-13T14:13:59.313Z,12.20
2023-02-13T14:16:04.832Z,12.20
2023-02-13T14:18:21.570Z,12.10
2023-02-13T14:20:41.456Z,11.50
2023-02-13T14:24:54.141Z,11.80
2023-02-13T14:27:05.573Z,11.60
2023-02-13T14:29:36.312Z,11.40
2023-02-13T14:31:46.244Z,11.60
2023-02-13T14:33:59.454Z,11.40
2023-02-13T14:36:10.054Z,11.50
2023-02-13T14:38:27.685Z,11.80
2023-02-13T14:40:50.760Z,11.60
2023-02-13T14:43:01.830Z,11.60
2023-02-13T14:45:18.983Z,11.70
2023-02-13T14:47:31.292Z,11.80
2023-02-13T14:49:40.668Z,11.90
2023-02-13T14:51:52.801Z,11.60
2023-02-13T14:54:09.067Z,11.60
2023-02-13T14:56:18.967Z,11.70
2023-02-13T14:58:31.381Z,11.70
2023-02-13T15:00:46.446Z,11.60
2023-02-13T15:02:57.932Z,11.30
2023-02-13T15:07:23.755Z,11.30
2023-02-13T15:09:40.262Z,11.30
2023-02-13T15:11:47.444Z,11.30
2023-02-13T15:13:52.586Z,11.20
2023-02-13T15:16:04.425Z,11.30
2023-02-13T15:18:19.565Z,11.10
2023-02-13T15:20:29.996Z,11.20
2023-02-13T15:22:38.179Z,11.10
2023-02-13T15:24:49.688Z,11.20
2023-02-13T15:27:04.853Z,11.30
2023-02-13T15:29:27.891Z,11.20
2023-02-13T15:31:39.990Z,11.00
2023-02-13T15:33:48.896Z,11.10
2023-02-13T15:36:03.447Z,11.10
2023-02-13T15:38:22.749Z,11.20
2023-02-13T15:40:31.305Z,11.00
2023-02-13T15:42:36.898Z,11.00
2023-02-13T15:44:43.409Z,10.90
2023-02-13T15:46:54.581Z,10.90
2023-02-13T15:49:03.464Z,10.80
2023-02-13T15:51:10.181Z,10.80
2023-02-13T15:53:21.000Z,10.50
2023-02-13T15:55:28.498Z,10.70
2023-02-13T15:57:34.670Z,10.60
2023-02-13T15:59:42.279Z,10.60
2023-02-13T16:01:50.878Z,10.40
2023-02-13T16:04:07.986Z,10.10
2023-02-13T16:06:18.285Z,10.10
2023-02-13T16:08:36.011Z,10.00
2023-02-13T16:10:41.729Z,9.90
2023-02-13T16:12:51.161Z,10.00
2023-02-13T16:15:00.414Z,9.80
2023-02-13T16:17:08.392Z,9.60
2023-02-13T16:19:27.683Z,9.60
2023-02-13T16:21:35.973Z,9.60
2023-02-13T16:25:49.166Z,9.40
2023-02-13T16:27:57.831Z,9.30
2023-02-13T16:30:07.528Z,9.30
2023-02-13T16:32:25.063Z,9.40
2023-02-13T16:34:33.744Z,9.30
2023-02-13T16:36:38.747Z,9.10
2023-02-13T16:38:46.183Z,9.00
2023-02-13T16:40:51.476Z,9.00
2023-02-13T16:42:56.444Z,9.00
2023-02-13T16:45:26.345Z,8.90
2023-02-13T16:47:31.483Z,8.80
2023-02-13T16:49:40.292Z,8.80
2023-02-13T16:51:49.228Z,8.70
2023-02-13T16:54:00.729Z,8.70
2023-02-13T16:56:11.962Z,8.50
2023-02-13T16:58:18.337Z,8.50
2023-02-13T17:00:28.119Z,8.40
2023-02-13T17:02:35.583Z,8.40
2023-02-13T17:04:44.832Z,8.20
2023-02-13T17:06:49.781Z,8.20
2023-02-13T17:08:56.232Z,8.10
2023-02-13T17:11:07.652Z,8.00
2023-02-13T17:13:20.408Z,8.00
2023-02-13T17:15:28.030Z,8.00
2023-02-13T17:17:34.840Z,8.00
2023-02-13T17:19:42.565Z,7.90
2023-02-13T17:21:47.555Z,7.80
2023-02-13T17:23:52.812Z,7.80
2023-02-13T17:25:58.922Z,7.50
2023-02-13T17:28:14.406Z,7.50
2023-02-13T17:30:23.045Z,7.50
2023-02-13T17:32:30.364Z,7.50
2023-02-13T17:34:35.585Z,7.30
2023-02-13T17:36:43.134Z,7.30
2023-02-13T17:38:48.414Z,7.20
2023-02-13T17:40:53.582Z,7.20
2023-02-13T17:43:00.437Z,7.10
2023-02-13T17:45:05.898Z,7.10
2023-02-13T17:47:10.894Z,7.10
2023-02-13T17:49:16.000Z,7.00
2023-02-13T17:51:21.281Z,6.90
2023-02-13T17:53:31.735Z,6.90
2023-02-13T17:55:37.875Z,6.70
2023-02-13T17:57:42.983Z,6.80
2023-02-13T17:59:51.359Z,6.70
2023-02-13T18:01:56.772Z,6.60
2023-02-13T18:04:02.542Z,6.70
2023-02-13T18:06:08.175Z,6.50
2023-02-13T18:08:13.426Z,6.50
2023-02-13T18:10:26.446Z,6.50
2023-02-13T18:12:31.658Z,6.10
2023-02-13T18:14:37.555Z,5.90
2023-02-13T18:16:43.415Z,5.70
2023-02-13T18:18:48.839Z,5.70
2023-02-13T18:20:59.717Z,5.80
2023-02-13T18:23:07.480Z,5.70
2023-02-13T18:25:16.742Z,5.70
2023-02-13T18:27:26.355Z,5.80
2023-02-13T18:29:31.591Z,5.80
2023-02-13T18:31:36.681Z,5.80
2023-02-13T18:33:42.352Z,5.70
2023-02-13T18:35:47.935Z,5.70
2023-02-13T18:37:53.172Z,5.70
2023-02-13T18:39:58.624Z,5.80
2023-02-13T18:42:05.150Z,5.70
2023-02-13T18:44:20.252Z,5.60
2023-02-13T18:46:33.606Z,5.60
2023-02-13T18:48:38.692Z,5.40
2023-02-13T18:50:44.477Z,5.20
2023-02-13T18:52:50.061Z,5.30
2023-02-13T18:54:55.044Z,5.30
2023-02-13T18:57:00.384Z,5.30
2023-02-13T18:59:07.512Z,5.30
2023-02-13T19:01:19.516Z,5.30
2023-02-13T19:03:24.570Z,5.30
2023-02-13T19:05:30.170Z,5.30
2023-02-13T19:07:36.762Z,5.30
2023-02-13T19:09:42.353Z,5.30
2023-02-13T19:11:48.573Z,5.30
2023-02-13T19:13:58.686Z,5.20
2023-02-13T19:16:07.600Z,5.20
2023-02-13T19:18:15.259Z,5.10
2023-02-13T19:20:20.625Z,5.00
2023-02-13T19:22:25.512Z,5.00
2023-02-13T19:24:30.622Z,4.80
2023-02-13T19:26:36.594Z,4.80
2023-02-13T19:28:41.693Z,4.70
2023-02-13T19:30:46.578Z,4.70
2023-02-13T19:32:51.859Z,4.70
2023-02-13T19:34:59.299Z,4.70
2023-02-13T19:37:04.730Z,4.60
2023-02-13T19:39:10.024Z,4.50
2023-02-13T19:41:18.523Z,4.50
2023-02-13T19:43:26.352Z,4.40
2023-02-13T19:45:31.683Z,4.40
2023-02-13T19:47:36.911Z,4.30
2023-02-13T19:49:41.806Z,4.30
2023-02-13T19:51:49.727Z,4.30
2023-02-13T19:53:59.410Z,4.30
2023-02-13T19:56:05.625Z,4.20
2023-02-13T19:58:10.530Z,4.00
2023-02-13T20:00:17.843Z,3.90
2023-02-13T20:02:23.082Z,3.80
2023-02-13T20:04:28.631Z,3.50
2023-02-13T20:06:37.956Z,3.40
2023-02-13T20:08:46.206Z,3.60
2023-02-13T20:10:51.099Z,3.60
2023-02-13T20:12:56.825Z,3.50
2023-02-13T20:15:01.723Z,3.70
2023-02-13T20:17:07.420Z,3.70
2023-02-13T20:19:14.046Z,3.80
2023-02-13T20:21:20.770Z,3.80
2023-02-13T20:23:25.955Z,3.80
2023-02-13T20:25:33.406Z,3.80
2023-02-13T20:27:43.022Z,3.80
2023-02-13T20:29:48.213Z,3.80
2023-02-13T20:31:54.798Z,3.80
2023-02-13T20:34:01.496Z,3.80
2023-02-13T20:36:13.269Z,3.60
2023-02-13T20:38:18.606Z,3.60
2023-02-13T20:40:23.669Z,3.30
2023-02-13T20:42:31.111Z,3.10
2023-02-13T20:44:35.996Z,3.30
2023-02-13T20:46:43.093Z,3.40
2023-02-13T20:48:50.667Z,3.30
2023-02-13T20:51:01.700Z,3.40
2023-02-13T20:53:06.872Z,3.30
2023-02-13T20:55:12.352Z,3.30
2023-02-13T20:57:17.422Z,3.30
2023-02-13T20:59:25.330Z,3.30
2023-02-13T21:01:33.765Z,3.20
2023-02-13T21:03:38.755Z,3.20
2023-02-13T21:05:46.415Z,3.10
2023-02-13T21:07:51.373Z,2.70
2023-02-13T21:09:57.103Z,2.70
2023-02-13T21:12:01.987Z,2.80
2023-02-13T21:14:08.096Z,2.90
2023-02-13T21:16:18.556Z,3.00
2023-02-13T21:18:23.815Z,2.90
2023-02-13T21:20:28.688Z,2.90
2023-02-13T21:22:33.907Z,3.00
2023-02-13T21:24:38.799Z,3.00
2023-02-13T21:26:45.616Z,2.90
2023-02-13T21:28:52.018Z,3.00
2023-02-13T21:30:57.755Z,2.90
2023-02-13T21:33:05.998Z,2.90
2023-02-13T21:35:11.792Z,2.90
2023-02-13T21:37:16.698Z,2.80
2023-02-13T21:39:21.985Z,2.80
2023-02-13T21:41:27.424Z,2.60
2023-02-13T21:43:32.258Z,2.50
2023-02-13T21:45:37.936Z,2.50
2023-02-13T21:47:44.691Z,2.60
2023-02-13T21:49:52.421Z,2.30
2023-02-13T21:51:57.278Z,2.40
2023-02-13T21:54:02.855Z,2.50
2023-02-13T21:56:10.276Z,2.60
2023-02-13T21:58:15.627Z,2.60
2023-02-13T22:00:21.030Z,2.60
2023-02-13T22:02:27.051Z,2.60
2023-02-13T22:04:32.757Z,2.60
2023-02-13T22:06:42.776Z,2.50
2023-02-13T22:08:48.010Z,2.50
2023-02-13T22:10:57.446Z,2.40
2023-02-13T22:13:02.614Z,2.30
2023-02-13T22:15:08.666Z,2.40
2023-02-13T22:17:13.562Z,2.20
2023-02-13T22:19:20.309Z,2.20
2023-02-13T22:21:28.130Z,1.90
2023-02-13T22:23:36.872Z,2.00
2023-02-13T22:25:41.828Z,2.10
2023-02-13T22:27:50.103Z,2.20
2023-02-13T22:29:55.805Z,2.20
2023-02-13T22:32:01.279Z,2.10
2023-02-13T22:34:08.216Z,2.10
2023-02-13T22:36:13.954Z,2.20
2023-02-13T22:38:19.748Z,2.10
2023-02-13T22:40:27.184Z,2.00
2023-02-13T22:42:32.216Z,2.00
2023-02-13T22:44:37.720Z,2.10
2023-02-13T22:46:42.650Z,2.00
2023-02-13T22:48:48.865Z,1.90
2023-02-13T22:50:54.467Z,2.00
2023-02-13T22:53:00.236Z,2.00
2023-02-13T22:55:05.338Z,2.00
2023-02-13T22:57:13.597Z,1.90
2023-02-13T22:59:18.310Z,1.90
2023-02-13T23:01:26.021Z,1.90
2023-02-13T23:03:34.799Z,1.90
2023-02-13T23:05:43.122Z,1.90
2023-02-13T23:07:48.478Z,1.80
2023-02-13T23:09:53.399Z,1.70
2023-02-13T23:12:11.507Z,1.60
2023-02-13T23:14:19.260Z,1.70
2023-02-13T23:16:24.626Z,1.70
2023-02-13T23:18:26.930Z,1.70
2023-02-13T23:20:32.339Z,1.70
2023-02-13T23:22:37.765Z,1.80
2023-02-13T23:24:42.847Z,1.70
2023-02-13T23:26:47.817Z,1.70
2023-02-13T23:28:53.406Z,1.80
2023-02-13T23:31:01.503Z,1.70
2023-02-13T23:33:06.973Z,1.70
2023-02-13T23:35:12.210Z,1.70
2023-02-13T23:37:17.886Z,1.60
2023-02-13T23:39:24.294Z,1.50
2023-02-13T23:41:30.120Z,1.60
2023-02-13T23:43:34.988Z,1.60
2023-02-13T23:45:40.413Z,1.60
2023-02-13T23:47:47.866Z,1.60
2023-02-13T23:49:52.745Z,1.60
2023-02-13T23:51:59.652Z,1.60
2023-02-13T23:54:05.390Z,1.60
2023-02-13T23:56:10.854Z,1.60
2023-02-13T23:58:15.868Z,1.50
